EGGW/LTN METAR and TAF weather

Enter ICAO airport designator
Station Type Date Time Source
EGGW METAR 2021/05/17 22:20 UTC NOAA

EGGW 172220Z AUTO 28007KT 9999 BKN041 10/07 Q1010


Station Type Date Time Source
EGGW Decoded METAR 2021/05/17 22:20 UTC NOAA

Luton Airport , United Kingdom (EGGW) 51-52N 000-22W
May 17, 2021 - 06:20 PM EDT / 2021.05.17 2220 UTC
Wind: from the W (280 degrees) at 8 MPH (7 KT):0
Visibility: greater than 7 mile(s):0
Sky conditions: mostly cloudy
Temperature: 50 F (10 C)
Dew Point: 44 F (7 C)
Relative Humidity: 81%
Pressure (altimeter): 29.83 in. Hg (1010 hPa)
ob: EGGW 172220Z AUTO 28007KT 9999 BKN041 10/07 Q1010
cycle: 22

Station Type Date Time Source
EGGW TAF 2021/05/17 18:09 UTC NOAA

TAF TAF EGGW 171656Z 1718/1818 31009KT 9999 FEW015 PROB40
TEMPO 1718/1724 6000 SHRA BKN014 BKN020CB PROB30
TEMPO 1804/1808 BKN008
TEMPO 1809/1818 6000 SHRA BKN014CB PROB30
TEMPO 1810/1818 3000 +TSRA

Example: see airport list